createdAt,value
2023-05-02T00:00:40.380Z,504.00
2023-05-02T00:01:40.410Z,504.00
2023-05-02T00:02:40.511Z,504.00
2023-05-02T00:03:40.415Z,502.00
2023-05-02T00:04:40.444Z,505.00
2023-05-02T00:05:40.339Z,504.00
2023-05-02T00:06:40.426Z,501.00
2023-05-02T00:07:40.326Z,502.00
2023-05-02T00:08:40.399Z,504.00
2023-05-02T00:09:40.335Z,506.00
2023-05-02T00:10:40.379Z,505.00
2023-05-02T00:11:40.343Z,505.00
2023-05-02T00:12:40.344Z,503.00
2023-05-02T00:13:40.345Z,504.00
2023-05-02T00:14:40.323Z,504.00
2023-05-02T00:15:40.330Z,505.00
2023-05-02T00:16:40.362Z,505.00
2023-05-02T00:17:40.384Z,503.00
2023-05-02T00:18:40.329Z,503.00
2023-05-02T00:19:40.341Z,501.00
2023-05-02T00:20:40.329Z,502.00
2023-05-02T00:21:40.319Z,502.00
2023-05-02T00:22:40.306Z,499.00
2023-05-02T00:23:40.310Z,499.00
2023-05-02T00:24:40.306Z,502.00
2023-05-02T00:25:40.320Z,501.00
2023-05-02T00:26:40.299Z,501.00
2023-05-02T00:27:40.286Z,501.00
2023-05-02T00:28:40.315Z,504.00
2023-05-02T00:29:40.284Z,504.00
2023-05-02T00:30:40.296Z,505.00
2023-05-02T00:31:40.377Z,506.00
2023-05-02T00:32:40.324Z,506.00
2023-05-02T00:33:40.280Z,507.00
2023-05-02T00:34:40.267Z,505.00
2023-05-02T00:35:40.275Z,507.00
2023-05-02T00:36:40.278Z,505.00
2023-05-02T00:37:40.282Z,505.00
2023-05-02T00:38:40.258Z,505.00
2023-05-02T00:39:40.260Z,507.00
2023-05-02T00:40:40.270Z,507.00
2023-05-02T00:41:40.297Z,507.00
2023-05-02T00:42:40.275Z,508.00
2023-05-02T00:43:40.247Z,510.00
2023-05-02T00:44:40.278Z,511.00
2023-05-02T00:45:40.253Z,512.00
2023-05-02T00:46:40.280Z,511.00
2023-05-02T00:47:40.282Z,509.00
2023-05-02T00:48:40.272Z,510.00
2023-05-02T00:49:40.277Z,509.00
2023-05-02T00:50:40.261Z,510.00
2023-05-02T00:51:40.294Z,509.00
2023-05-02T00:52:40.268Z,506.00
2023-05-02T00:53:40.247Z,507.00
2023-05-02T00:54:40.264Z,508.00
2023-05-02T00:55:40.272Z,508.00
2023-05-02T00:56:40.260Z,508.00
2023-05-02T00:57:40.241Z,508.00
2023-05-02T00:58:40.246Z,509.00
2023-05-02T00:59:40.235Z,512.00
2023-05-02T01:00:40.221Z,512.00
2023-05-02T01:01:40.275Z,511.00
2023-05-02T01:02:40.260Z,512.00
2023-05-02T01:03:40.303Z,513.00
2023-05-02T01:04:40.220Z,512.00
2023-05-02T01:05:40.207Z,512.00
2023-05-02T01:06:40.300Z,511.00
2023-05-02T01:07:40.201Z,511.00
2023-05-02T01:08:40.206Z,511.00
2023-05-02T01:09:40.217Z,515.00
2023-05-02T01:10:40.213Z,518.00
2023-05-02T01:11:40.225Z,519.00
2023-05-02T01:12:40.205Z,516.00
2023-05-02T01:13:40.199Z,516.00
2023-05-02T01:14:40.213Z,515.00
2023-05-02T01:15:40.239Z,513.00
2023-05-02T01:16:40.357Z,514.00
2023-05-02T01:17:40.236Z,517.00
2023-05-02T01:18:40.172Z,516.00
2023-05-02T01:19:40.183Z,516.00
2023-05-02T01:20:40.184Z,516.00
2023-05-02T01:21:40.241Z,517.00
2023-05-02T01:22:40.173Z,520.00
2023-05-02T01:23:40.155Z,521.00
2023-05-02T01:24:40.174Z,522.00
2023-05-02T01:25:40.158Z,520.00
2023-05-02T01:26:40.174Z,521.00
2023-05-02T01:27:40.164Z,520.00
2023-05-02T01:28:40.156Z,516.00
2023-05-02T01:29:40.144Z,516.00
2023-05-02T01:30:40.132Z,517.00
2023-05-02T01:31:40.270Z,515.00
2023-05-02T01:32:40.195Z,516.00
2023-05-02T01:33:40.148Z,517.00
2023-05-02T01:34:40.134Z,517.00
2023-05-02T01:35:40.141Z,517.00
2023-05-02T01:36:40.124Z,518.00
2023-05-02T01:37:40.123Z,518.00
2023-05-02T01:38:40.123Z,518.00
2023-05-02T01:39:40.125Z,518.00
2023-05-02T01:40:40.131Z,515.00
2023-05-02T01:41:40.136Z,516.00
2023-05-02T01:42:40.118Z,516.00
2023-05-02T01:43:40.099Z,516.00
2023-05-02T01:44:40.099Z,512.00
2023-05-02T01:45:40.110Z,511.00
2023-05-02T01:46:40.210Z,514.00
2023-05-02T01:47:40.142Z,514.00
2023-05-02T01:48:40.079Z,515.00
2023-05-02T01:49:40.087Z,520.00
2023-05-02T01:50:40.085Z,520.00
2023-05-02T01:51:40.065Z,519.00
2023-05-02T01:52:40.058Z,518.00
2023-05-02T01:53:40.104Z,518.00
2023-05-02T01:54:40.079Z,518.00
2023-05-02T01:55:40.081Z,516.00
2023-05-02T01:56:40.069Z,514.00
2023-05-02T01:57:40.078Z,512.00
2023-05-02T01:58:40.065Z,511.00
2023-05-02T01:59:40.075Z,508.00
2023-05-02T02:00:40.086Z,509.00
2023-05-02T02:01:40.212Z,506.00
2023-05-02T02:02:40.073Z,506.00
2023-05-02T02:03:40.158Z,505.00
2023-05-02T02:04:40.323Z,504.00
2023-05-02T02:05:40.065Z,506.00
2023-05-02T02:06:40.117Z,508.00
2023-05-02T02:07:40.081Z,507.00
2023-05-02T02:08:40.104Z,507.00
2023-05-02T02:09:40.100Z,506.00
2023-05-02T02:10:40.065Z,505.00
2023-05-02T02:11:40.057Z,508.00
2023-05-02T02:12:40.076Z,507.00
2023-05-02T02:13:40.092Z,507.00
2023-05-02T02:14:40.096Z,504.00
2023-05-02T02:15:40.075Z,504.00
2023-05-02T02:16:40.129Z,506.00
2023-05-02T02:17:40.108Z,505.00
2023-05-02T02:18:40.087Z,505.00
2023-05-02T02:19:40.106Z,504.00
2023-05-02T02:20:40.091Z,504.00
2023-05-02T02:21:40.093Z,503.00
2023-05-02T02:22:40.091Z,504.00
2023-05-02T02:23:40.096Z,502.00
2023-05-02T02:24:40.080Z,502.00
2023-05-02T02:25:40.085Z,499.00
2023-05-02T02:26:40.093Z,497.00
2023-05-02T02:27:40.088Z,496.00
2023-05-02T02:28:40.096Z,497.00
2023-05-02T02:29:40.111Z,497.00
2023-05-02T02:30:40.199Z,497.00
2023-05-02T02:31:40.114Z,496.00
2023-05-02T02:32:40.144Z,494.00
2023-05-02T02:33:40.185Z,495.00
2023-05-02T02:34:40.112Z,497.00
2023-05-02T02:35:40.086Z,500.00
2023-05-02T02:36:40.113Z,503.00
2023-05-02T02:37:40.099Z,505.00
2023-05-02T02:38:40.084Z,510.00
2023-05-02T02:39:40.084Z,509.00
2023-05-02T02:40:40.085Z,511.00
2023-05-02T02:41:40.077Z,511.00
2023-05-02T02:42:40.129Z,511.00
2023-05-02T02:43:40.084Z,510.00
2023-05-02T02:44:40.086Z,507.00
2023-05-02T02:45:40.096Z,506.00
2023-05-02T02:46:40.160Z,504.00
2023-05-02T02:47:40.140Z,502.00
2023-05-02T02:48:40.107Z,499.00
2023-05-02T02:49:40.093Z,500.00
2023-05-02T02:50:40.103Z,500.00
2023-05-02T02:51:40.114Z,501.00
2023-05-02T02:52:40.078Z,502.00
2023-05-02T02:53:40.156Z,508.00
2023-05-02T02:54:40.093Z,509.00
2023-05-02T02:55:40.103Z,507.00
2023-05-02T02:56:40.096Z,510.00
2023-05-02T02:57:40.068Z,508.00
2023-05-02T02:58:40.085Z,509.00
2023-05-02T02:59:40.092Z,507.00
2023-05-02T03:00:40.089Z,508.00
2023-05-02T03:01:40.166Z,508.00
2023-05-02T03:02:40.103Z,511.00
2023-05-02T03:03:40.092Z,509.00
2023-05-02T03:04:40.106Z,508.00
2023-05-02T03:05:40.066Z,507.00
2023-05-02T03:06:40.110Z,507.00
2023-05-02T03:07:40.100Z,506.00
2023-05-02T03:08:40.085Z,505.00
2023-05-02T03:09:40.135Z,506.00
2023-05-02T03:10:40.073Z,510.00
2023-05-02T03:11:40.104Z,508.00
2023-05-02T03:12:40.197Z,510.00
2023-05-02T03:13:40.067Z,514.00
2023-05-02T03:14:40.129Z,513.00
2023-05-02T03:15:40.112Z,513.00
2023-05-02T03:16:40.198Z,515.00
2023-05-02T03:17:40.134Z,517.00
2023-05-02T03:18:40.082Z,514.00
2023-05-02T03:19:40.112Z,510.00
2023-05-02T03:20:40.099Z,510.00
2023-05-02T03:21:40.102Z,509.00
2023-05-02T03:22:40.100Z,507.00
2023-05-02T03:23:40.092Z,507.00
2023-05-02T03:24:40.112Z,504.00
2023-05-02T03:25:40.131Z,505.00
2023-05-02T03:26:40.116Z,508.00
2023-05-02T03:27:40.105Z,512.00
2023-05-02T03:28:40.105Z,511.00
2023-05-02T03:29:40.088Z,511.00
2023-05-02T03:30:40.096Z,513.00
2023-05-02T03:31:40.147Z,511.00
2023-05-02T03:32:40.123Z,509.00
2023-05-02T03:33:40.109Z,508.00
2023-05-02T03:34:40.130Z,506.00
2023-05-02T03:35:40.118Z,504.00
2023-05-02T03:36:40.127Z,507.00
2023-05-02T03:37:40.134Z,508.00
2023-05-02T03:38:40.132Z,507.00
2023-05-02T03:39:40.146Z,508.00
2023-05-02T03:40:40.168Z,508.00
2023-05-02T03:41:40.160Z,508.00
2023-05-02T03:42:40.153Z,510.00
2023-05-02T03:43:40.149Z,510.00
2023-05-02T03:44:40.175Z,508.00
2023-05-02T03:45:40.169Z,508.00
2023-05-02T03:46:40.211Z,509.00
2023-05-02T03:47:40.245Z,508.00
2023-05-02T03:48:40.192Z,508.00
2023-05-02T03:49:40.191Z,509.00
2023-05-02T03:50:40.184Z,509.00
2023-05-02T03:51:40.193Z,508.00
2023-05-02T03:52:40.194Z,508.00
2023-05-02T03:53:40.193Z,510.00
2023-05-02T03:54:40.218Z,507.00
2023-05-02T03:55:40.198Z,509.00
2023-05-02T03:56:42.654Z,509.00
2023-05-02T03:57:40.390Z,510.00
2023-05-02T03:58:40.395Z,510.00
2023-05-02T03:59:40.386Z,511.00
2023-05-02T04:00:40.422Z,511.00
2023-05-02T04:01:40.464Z,510.00
2023-05-02T04:02:40.606Z,506.00
2023-05-02T04:03:40.557Z,508.00
2023-05-02T04:04:40.489Z,506.00
2023-05-02T04:05:40.425Z,506.00
2023-05-02T04:06:40.541Z,508.00
2023-05-02T04:07:40.467Z,505.00
2023-05-02T04:08:40.467Z,505.00
2023-05-02T04:09:40.470Z,507.00
2023-05-02T04:10:40.479Z,506.00
2023-05-02T04:11:40.476Z,507.00
2023-05-02T04:12:40.503Z,507.00
2023-05-02T04:13:40.491Z,506.00
2023-05-02T04:14:40.511Z,504.00
2023-05-02T04:15:40.481Z,503.00
2023-05-02T04:16:40.532Z,504.00
2023-05-02T04:17:40.541Z,506.00
2023-05-02T04:18:40.527Z,509.00
2023-05-02T04:19:40.530Z,509.00
2023-05-02T04:20:40.534Z,506.00
2023-05-02T04:21:40.543Z,506.00
2023-05-02T04:22:40.541Z,503.00
2023-05-02T04:23:40.554Z,501.00
2023-05-02T04:24:40.584Z,500.00
2023-05-02T04:25:40.562Z,504.00
2023-05-02T04:26:40.568Z,505.00
2023-05-02T04:27:40.564Z,504.00
2023-05-02T04:28:40.585Z,504.00
2023-05-02T04:29:40.597Z,502.00
2023-05-02T04:30:40.634Z,503.00
2023-05-02T04:31:40.590Z,504.00
2023-05-02T04:32:40.625Z,503.00
2023-05-02T04:33:40.610Z,500.00
2023-05-02T04:34:40.613Z,500.00
2023-05-02T04:35:40.623Z,499.00
2023-05-02T04:36:40.621Z,501.00
2023-05-02T04:37:40.634Z,498.00
2023-05-02T04:38:40.651Z,497.00
2023-05-02T04:39:40.661Z,496.00
2023-05-02T04:40:40.639Z,495.00
2023-05-02T04:41:40.656Z,497.00
2023-05-02T04:42:40.650Z,499.00
2023-05-02T04:43:40.661Z,501.00
2023-05-02T04:44:40.673Z,503.00
2023-05-02T04:45:40.663Z,502.00
2023-05-02T04:46:40.705Z,502.00
2023-05-02T04:47:40.713Z,504.00
2023-05-02T04:48:40.678Z,505.00
2023-05-02T04:49:40.672Z,503.00
2023-05-02T04:50:40.667Z,503.00
2023-05-02T04:51:40.671Z,502.00
2023-05-02T04:52:40.697Z,503.00
2023-05-02T04:53:40.689Z,503.00
2023-05-02T04:54:40.700Z,502.00
2023-05-02T04:55:40.701Z,501.00
2023-05-02T04:56:40.703Z,501.00
2023-05-02T04:57:40.687Z,502.00
2023-05-02T04:58:40.695Z,501.00
2023-05-02T04:59:40.715Z,502.00
2023-05-02T05:00:40.751Z,504.00
2023-05-02T05:01:40.809Z,505.00
2023-05-02T05:02:40.796Z,506.00
2023-05-02T05:03:40.818Z,507.00
2023-05-02T05:04:40.732Z,508.00
2023-05-02T05:05:40.850Z,506.00
2023-05-02T05:06:40.777Z,506.00
2023-05-02T05:07:40.726Z,508.00
2023-05-02T05:08:40.733Z,510.00
2023-05-02T05:09:40.734Z,509.00
2023-05-02T05:10:40.761Z,509.00
2023-05-02T05:11:40.700Z,511.00
2023-05-02T05:12:40.706Z,513.00
2023-05-02T05:13:40.708Z,518.00
2023-05-02T05:14:40.756Z,522.00
2023-05-02T05:15:40.712Z,522.00
2023-05-02T05:16:40.765Z,526.00
2023-05-02T05:17:40.788Z,528.00
2023-05-02T05:18:40.861Z,531.00
2023-05-02T05:19:40.718Z,534.00
2023-05-02T05:20:40.707Z,533.00
2023-05-02T05:21:40.716Z,533.00
2023-05-02T05:22:40.742Z,533.00
2023-05-02T05:23:40.807Z,533.00
2023-05-02T05:24:40.789Z,535.00
2023-05-02T05:25:41.248Z,536.00
2023-05-02T05:26:40.872Z,535.00
2023-05-02T05:27:40.906Z,534.00
2023-05-02T05:28:40.904Z,532.00
2023-05-02T05:29:40.931Z,585.00
2023-05-02T05:30:40.902Z,630.00
2023-05-02T05:31:40.997Z,631.00
2023-05-02T05:32:41.034Z,635.00
2023-05-02T05:33:40.989Z,661.00
2023-05-02T05:34:40.985Z,650.00
2023-05-02T05:35:41.025Z,638.00
2023-05-02T05:36:41.086Z,690.00
2023-05-02T05:37:41.120Z,680.00
2023-05-02T05:38:41.187Z,704.00
2023-05-02T05:39:41.259Z,742.00
2023-05-02T05:40:41.324Z,783.00
2023-05-02T05:41:41.382Z,784.00
2023-05-02T05:42:41.412Z,783.00
2023-05-02T05:43:41.470Z,794.00
2023-05-02T05:44:41.530Z,801.00
2023-05-02T05:45:41.604Z,812.00
2023-05-02T05:46:41.687Z,824.00
2023-05-02T05:47:41.698Z,828.00
2023-05-02T05:48:41.692Z,842.00
2023-05-02T05:49:42.121Z,861.00
2023-05-02T05:50:41.785Z,865.00
2023-05-02T05:51:41.806Z,900.00
2023-05-02T05:52:41.824Z,908.00
2023-05-02T05:53:41.839Z,897.00
2023-05-02T05:54:41.881Z,897.00
2023-05-02T05:55:42.446Z,896.00
2023-05-02T05:56:41.966Z,907.00
2023-05-02T05:57:41.963Z,919.00
2023-05-02T05:58:42.000Z,928.00
2023-05-02T05:59:41.987Z,936.00
2023-05-02T06:00:42.016Z,943.00
2023-05-02T06:01:42.042Z,949.00
2023-05-02T06:02:42.128Z,956.00
2023-05-02T06:03:42.150Z,964.00
2023-05-02T06:04:42.145Z,970.00
2023-05-02T06:05:42.096Z,979.00
2023-05-02T06:06:42.197Z,988.00
2023-05-02T06:07:42.135Z,995.00
2023-05-02T06:08:42.143Z,1009.00
2023-05-02T06:09:42.176Z,1017.00
2023-05-02T06:10:42.191Z,1027.00
2023-05-02T06:11:42.239Z,1030.00
2023-05-02T06:12:42.641Z,1031.00
2023-05-02T06:13:42.236Z,1029.00
2023-05-02T06:14:42.292Z,957.00
2023-05-02T06:15:42.320Z,984.00
2023-05-02T06:16:42.629Z,999.00
2023-05-02T06:17:42.649Z,1002.00
2023-05-02T06:18:42.351Z,1002.00
2023-05-02T06:19:42.374Z,1003.00
2023-05-02T06:20:42.373Z,1000.00
2023-05-02T06:21:42.413Z,956.00
2023-05-02T06:22:42.443Z,974.00
2023-05-02T06:23:42.469Z,980.00
2023-05-02T06:24:42.479Z,979.00
2023-05-02T06:25:42.551Z,986.00
2023-05-02T06:26:42.514Z,989.00
2023-05-02T06:27:42.532Z,975.00
2023-05-02T06:28:42.565Z,964.00
2023-05-02T06:29:42.609Z,933.00
2023-05-02T06:30:42.597Z,920.00
2023-05-02T06:31:42.673Z,981.00
2023-05-02T06:32:43.168Z,955.00
2023-05-02T06:33:42.699Z,983.00
2023-05-02T06:34:43.119Z,1034.00
2023-05-02T06:35:42.700Z,1027.00
2023-05-02T06:36:42.748Z,924.00
2023-05-02T06:37:42.827Z,834.00
2023-05-02T06:38:42.772Z,814.00
2023-05-02T06:39:43.162Z,804.00
2023-05-02T06:40:42.832Z,792.00
2023-05-02T06:41:42.895Z,784.00
2023-05-02T06:42:42.944Z,772.00
2023-05-02T06:43:42.941Z,767.00
2023-05-02T06:44:43.121Z,758.00
2023-05-02T06:45:43.047Z,751.00
2023-05-02T06:46:43.143Z,751.00
2023-05-02T06:47:43.665Z,750.00
2023-05-02T06:48:43.193Z,754.00
2023-05-02T06:49:43.258Z,764.00
2023-05-02T06:50:43.299Z,781.00
2023-05-02T06:51:43.372Z,770.00
2023-05-02T06:52:43.449Z,762.00
2023-05-02T06:53:43.506Z,759.00
2023-05-02T06:54:43.639Z,748.00
2023-05-02T06:55:43.633Z,738.00
2023-05-02T06:56:43.683Z,725.00
2023-05-02T06:57:43.729Z,726.00
2023-05-02T06:58:43.802Z,725.00
2023-05-02T06:59:44.127Z,762.00
2023-05-02T07:00:43.932Z,787.00
2023-05-02T07:01:43.936Z,871.00
2023-05-02T07:02:44.133Z,830.00
2023-05-02T07:03:43.937Z,816.00
2023-05-02T07:04:44.064Z,826.00
2023-05-02T07:05:44.050Z,819.00
2023-05-02T07:06:44.105Z,795.00
2023-05-02T07:07:44.183Z,803.00
2023-05-02T07:08:44.220Z,789.00
2023-05-02T07:09:44.273Z,795.00
2023-05-02T07:10:44.386Z,784.00
2023-05-02T07:11:44.386Z,782.00
2023-05-02T07:12:44.624Z,777.00
2023-05-02T07:13:44.533Z,769.00
2023-05-02T07:14:44.638Z,762.00
2023-05-02T07:15:44.677Z,753.00
2023-05-02T07:16:44.722Z,745.00
2023-05-02T07:17:44.842Z,734.00
2023-05-02T07:18:45.009Z,718.00
2023-05-02T07:19:45.775Z,699.00
2023-05-02T07:20:44.952Z,694.00
2023-05-02T07:21:44.998Z,692.00
2023-05-02T07:22:45.160Z,722.00
2023-05-02T07:23:45.105Z,744.00
2023-05-02T07:24:45.633Z,758.00
2023-05-02T07:25:45.225Z,766.00
2023-05-02T07:26:45.271Z,824.00
2023-05-02T07:27:45.645Z,857.00
2023-05-02T07:28:45.356Z,845.00
2023-05-02T07:29:45.410Z,796.00
2023-05-02T07:30:45.560Z,790.00
2023-05-02T07:31:45.574Z,804.00
2023-05-02T07:32:45.580Z,798.00
2023-05-02T07:33:45.633Z,817.00
2023-05-02T07:34:45.657Z,823.00
2023-05-02T07:35:45.697Z,832.00
2023-05-02T07:36:45.746Z,862.00
2023-05-02T07:37:45.794Z,900.00
2023-05-02T07:38:45.831Z,932.00
2023-05-02T07:39:46.135Z,966.00
2023-05-02T07:40:45.845Z,952.00
2023-05-02T07:41:45.866Z,981.00
2023-05-02T07:42:45.899Z,1001.00
2023-05-02T07:43:45.920Z,1011.00
2023-05-02T07:44:45.931Z,1016.00
2023-05-02T07:45:46.000Z,1062.00
2023-05-02T07:46:46.064Z,1048.00
2023-05-02T07:47:46.337Z,1099.00
2023-05-02T07:48:45.949Z,1076.00
2023-05-02T07:49:45.962Z,1088.00
2023-05-02T07:50:45.949Z,1109.00
2023-05-02T07:51:45.930Z,1126.00
2023-05-02T07:52:45.946Z,1065.00
2023-05-02T07:53:45.963Z,1059.00
2023-05-02T07:54:45.930Z,1034.00
2023-05-02T07:55:45.935Z,1011.00
2023-05-02T07:56:45.958Z,1025.00
2023-05-02T07:57:45.945Z,1028.00
2023-05-02T07:58:46.000Z,1027.00
2023-05-02T07:59:46.021Z,1033.00
2023-05-02T08:00:45.999Z,1030.00
2023-05-02T08:01:46.019Z,1037.00
2023-05-02T08:02:46.126Z,1038.00
2023-05-02T08:03:46.229Z,1039.00
2023-05-02T08:04:46.126Z,1050.00
2023-05-02T08:05:46.157Z,1057.00
2023-05-02T08:06:46.285Z,1066.00
2023-05-02T08:07:46.286Z,1074.00
2023-05-02T08:08:46.336Z,1083.00
2023-05-02T08:09:46.410Z,1090.00
2023-05-02T08:10:46.670Z,1089.00
2023-05-02T08:11:46.525Z,1043.00
2023-05-02T08:12:46.650Z,985.00
2023-05-02T08:13:46.539Z,1002.00
2023-05-02T08:14:46.569Z,1020.00
2023-05-02T08:15:46.666Z,1011.00
2023-05-02T08:16:46.827Z,1020.00
2023-05-02T08:17:46.659Z,1032.00
2023-05-02T08:18:46.585Z,1057.00
2023-05-02T08:19:46.625Z,1101.00
2023-05-02T08:20:46.723Z,1071.00
2023-05-02T08:21:46.579Z,1064.00
2023-05-02T08:22:46.690Z,1059.00
2023-05-02T08:23:46.597Z,1049.00
2023-05-02T08:24:46.588Z,1045.00
2023-05-02T08:25:46.586Z,1040.00
2023-05-02T08:26:46.608Z,1046.00
2023-05-02T08:27:46.623Z,1082.00
2023-05-02T08:28:46.646Z,1096.00
2023-05-02T08:29:46.693Z,1107.00
2023-05-02T08:30:46.728Z,1062.00
2023-05-02T08:31:46.819Z,1051.00
2023-05-02T08:32:46.821Z,1063.00
2023-05-02T08:33:46.868Z,1088.00
2023-05-02T08:34:46.974Z,1105.00
2023-05-02T08:35:47.004Z,1106.00
2023-05-02T08:36:47.069Z,1072.00
2023-05-02T08:37:47.133Z,1047.00
2023-05-02T08:38:47.224Z,1112.00
2023-05-02T08:39:47.298Z,1151.00
2023-05-02T08:40:47.310Z,1162.00
2023-05-02T08:41:47.378Z,1177.00
2023-05-02T08:42:47.669Z,1205.00
2023-05-02T08:43:47.522Z,1244.00
2023-05-02T08:44:47.547Z,1256.00
2023-05-02T08:45:47.584Z,1255.00
2023-05-02T08:46:47.738Z,1246.00
2023-05-02T08:47:48.194Z,1236.00
2023-05-02T08:48:47.783Z,1230.00
2023-05-02T08:49:47.816Z,1229.00
2023-05-02T08:50:48.221Z,1219.00
2023-05-02T08:51:47.966Z,1215.00
2023-05-02T08:52:47.992Z,1207.00
2023-05-02T08:53:48.044Z,1209.00
2023-05-02T08:54:48.107Z,1202.00
2023-05-02T08:55:48.183Z,1200.00
2023-05-02T08:56:48.253Z,1196.00
2023-05-02T08:57:48.276Z,1199.00
2023-05-02T08:58:48.345Z,1198.00
2023-05-02T08:59:48.415Z,1197.00
2023-05-02T09:00:48.545Z,1196.00
2023-05-02T09:01:48.686Z,1191.00
2023-05-02T09:02:48.619Z,1185.00
2023-05-02T09:03:48.709Z,1183.00
2023-05-02T09:04:48.795Z,1180.00
2023-05-02T09:05:48.779Z,1182.00
2023-05-02T09:06:48.909Z,1183.00
2023-05-02T09:07:48.909Z,1178.00
2023-05-02T09:08:48.985Z,1173.00
2023-05-02T09:09:49.054Z,1169.00
2023-05-02T09:10:49.258Z,1164.00
2023-05-02T09:11:49.172Z,1159.00
2023-05-02T09:12:49.260Z,1100.00
2023-05-02T09:13:49.285Z,1172.00
2023-05-02T09:14:49.344Z,1158.00
2023-05-02T09:15:49.420Z,1155.00
2023-05-02T09:16:49.499Z,1159.00
2023-05-02T09:17:49.594Z,1166.00
2023-05-02T09:18:49.592Z,1169.00
2023-05-02T09:19:49.656Z,1161.00
2023-05-02T09:20:49.717Z,1161.00
2023-05-02T09:21:49.792Z,1166.00
2023-05-02T09:22:50.183Z,1166.00
2023-05-02T09:23:49.930Z,1170.00
2023-05-02T09:24:49.982Z,1165.00
2023-05-02T09:25:50.025Z,1070.00
2023-05-02T09:26:50.063Z,1034.00
2023-05-02T09:27:50.215Z,1009.00
2023-05-02T09:28:50.092Z,1033.00
2023-05-02T09:29:50.097Z,1057.00
2023-05-02T09:30:50.274Z,1058.00
2023-05-02T09:31:56.291Z,1064.00
2023-05-02T09:32:51.277Z,1066.00
2023-05-02T09:33:50.068Z,1017.00
2023-05-02T09:34:50.078Z,1012.00
2023-05-02T09:35:50.066Z,960.00
2023-05-02T09:36:50.038Z,954.00
2023-05-02T09:37:50.062Z,948.00
2023-05-02T09:38:50.084Z,892.00
2023-05-02T09:39:50.024Z,878.00
2023-05-02T09:40:50.006Z,827.00
2023-05-02T09:41:50.022Z,808.00
2023-05-02T09:42:50.034Z,793.00
2023-05-02T09:43:49.992Z,789.00
2023-05-02T09:44:50.001Z,791.00
2023-05-02T09:45:50.068Z,787.00
2023-05-02T09:46:49.979Z,779.00
2023-05-02T09:47:50.061Z,763.00
2023-05-02T09:48:50.048Z,760.00
2023-05-02T09:49:50.083Z,753.00
2023-05-02T09:50:50.134Z,742.00
2023-05-02T09:51:50.184Z,727.00
2023-05-02T09:52:50.224Z,714.00
2023-05-02T09:53:50.286Z,705.00
2023-05-02T09:54:50.312Z,699.00
2023-05-02T09:55:50.367Z,701.00
2023-05-02T09:56:50.386Z,721.00
2023-05-02T09:57:50.453Z,739.00
2023-05-02T09:58:50.486Z,738.00
2023-05-02T09:59:50.525Z,753.00
2023-05-02T10:00:50.561Z,767.00
2023-05-02T10:01:50.605Z,777.00
2023-05-02T10:02:50.621Z,845.00
2023-05-02T10:03:50.636Z,860.00
2023-05-02T10:04:50.627Z,867.00
2023-05-02T10:05:50.724Z,874.00
2023-05-02T10:06:50.768Z,877.00
2023-05-02T10:07:51.213Z,887.00
2023-05-02T10:08:50.623Z,900.00
2023-05-02T10:09:50.600Z,909.00
2023-05-02T10:10:51.210Z,920.00
2023-05-02T10:11:50.623Z,931.00
2023-05-02T10:12:50.629Z,861.00
2023-05-02T10:13:50.647Z,886.00
2023-05-02T10:14:50.668Z,889.00
2023-05-02T10:15:50.719Z,898.00
2023-05-02T10:16:50.770Z,902.00
2023-05-02T10:17:50.903Z,987.00
2023-05-02T10:18:50.858Z,987.00
2023-05-02T10:19:50.915Z,994.00
2023-05-02T10:20:50.951Z,996.00
2023-05-02T10:21:50.971Z,896.00
2023-05-02T10:22:51.021Z,866.00
2023-05-02T10:23:50.998Z,873.00
2023-05-02T10:24:50.979Z,862.00
2023-05-02T10:25:51.051Z,860.00
2023-05-02T10:26:51.043Z,833.00
2023-05-02T10:27:51.075Z,847.00
2023-05-02T10:28:51.187Z,764.00
2023-05-02T10:29:51.197Z,767.00
2023-05-02T10:30:51.242Z,782.00
2023-05-02T10:31:51.243Z,800.00
2023-05-02T10:32:51.323Z,845.00
2023-05-02T10:33:51.723Z,861.00
2023-05-02T10:34:51.384Z,906.00
2023-05-02T10:35:51.705Z,924.00
2023-05-02T10:36:51.481Z,929.00
2023-05-02T10:37:51.525Z,940.00
2023-05-02T10:38:51.576Z,946.00
2023-05-02T10:39:51.581Z,947.00
2023-05-02T10:40:51.598Z,880.00
2023-05-02T10:41:51.646Z,878.00
2023-05-02T10:42:51.629Z,857.00
2023-05-02T10:43:51.666Z,841.00
2023-05-02T10:44:51.680Z,834.00
2023-05-02T10:45:51.701Z,823.00
2023-05-02T10:46:51.777Z,833.00
2023-05-02T10:47:51.811Z,859.00
2023-05-02T10:48:51.802Z,848.00
2023-05-02T10:49:51.810Z,830.00
2023-05-02T10:50:51.879Z,818.00
2023-05-02T10:51:51.884Z,802.00
2023-05-02T10:52:51.914Z,814.00
2023-05-02T10:53:51.964Z,820.00
2023-05-02T10:54:52.005Z,810.00
2023-05-02T10:55:52.026Z,797.00
2023-05-02T10:56:52.041Z,785.00
2023-05-02T10:57:52.083Z,789.00
2023-05-02T10:58:52.116Z,846.00
2023-05-02T10:59:52.126Z,763.00
2023-05-02T11:00:52.267Z,773.00
2023-05-02T11:01:52.211Z,763.00
2023-05-02T11:02:52.325Z,769.00
2023-05-02T11:03:52.722Z,848.00
2023-05-02T11:04:52.325Z,856.00
2023-05-02T11:05:52.374Z,849.00
2023-05-02T11:06:52.386Z,857.00
2023-05-02T11:07:52.407Z,876.00
2023-05-02T11:08:52.422Z,890.00
2023-05-02T11:09:52.416Z,904.00
2023-05-02T11:10:52.725Z,937.00
2023-05-02T11:11:52.457Z,955.00
2023-05-02T11:12:52.488Z,964.00
2023-05-02T11:13:52.476Z,995.00
2023-05-02T11:14:52.455Z,942.00
2023-05-02T11:15:52.498Z,938.00
2023-05-02T11:16:52.500Z,935.00
2023-05-02T11:17:52.549Z,865.00
2023-05-02T11:18:52.482Z,819.00
2023-05-02T11:19:52.470Z,814.00
2023-05-02T11:20:52.479Z,743.00
2023-05-02T11:21:52.500Z,743.00
2023-05-02T11:22:52.549Z,735.00
2023-05-02T11:23:52.574Z,731.00
2023-05-02T11:24:52.584Z,721.00
2023-05-02T11:25:52.666Z,685.00
2023-05-02T11:26:52.721Z,679.00
2023-05-02T11:27:52.740Z,665.00
2023-05-02T11:28:52.812Z,646.00
2023-05-02T11:29:52.889Z,637.00
2023-05-02T11:30:52.925Z,636.00
2023-05-02T11:31:53.034Z,632.00
2023-05-02T11:32:53.079Z,625.00
2023-05-02T11:33:53.103Z,613.00
2023-05-02T11:34:53.142Z,607.00
2023-05-02T11:35:53.156Z,602.00
2023-05-02T11:36:53.208Z,602.00
2023-05-02T11:37:53.239Z,583.00
2023-05-02T11:38:53.224Z,581.00
2023-05-02T11:39:53.253Z,535.00
2023-05-02T11:40:53.254Z,553.00
2023-05-02T11:41:53.268Z,537.00
2023-05-02T11:42:53.345Z,540.00
2023-05-02T11:43:53.392Z,544.00
2023-05-02T11:44:53.394Z,548.00
2023-05-02T11:45:53.466Z,551.00
2023-05-02T11:46:53.455Z,551.00
2023-05-02T11:47:53.508Z,553.00
2023-05-02T11:48:53.528Z,554.00
2023-05-02T11:49:53.525Z,552.00
2023-05-02T11:50:53.570Z,547.00
2023-05-02T11:51:53.559Z,544.00
2023-05-02T11:52:53.583Z,542.00
2023-05-02T11:53:53.609Z,545.00
2023-05-02T11:54:53.593Z,554.00
2023-05-02T11:55:53.616Z,559.00
2023-05-02T11:56:53.590Z,560.00
2023-05-02T11:57:53.624Z,560.00
2023-05-02T11:58:53.665Z,562.00
2023-05-02T11:59:53.730Z,561.00
2023-05-02T12:00:53.793Z,561.00
2023-05-02T12:01:53.854Z,561.00
2023-05-02T12:02:53.988Z,563.00
2023-05-02T12:03:54.091Z,561.00
2023-05-02T12:04:54.040Z,559.00
2023-05-02T12:05:54.217Z,560.00
2023-05-02T12:06:54.149Z,557.00
2023-05-02T12:07:54.190Z,555.00
2023-05-02T12:08:54.262Z,553.00
2023-05-02T12:09:54.280Z,553.00
2023-05-02T12:10:54.324Z,552.00
2023-05-02T12:11:54.369Z,548.00
2023-05-02T12:12:54.427Z,547.00
2023-05-02T12:13:54.485Z,550.00
2023-05-02T12:14:54.504Z,552.00
2023-05-02T12:15:54.730Z,554.00
2023-05-02T12:16:54.574Z,554.00
2023-05-02T12:17:54.751Z,555.00
2023-05-02T12:18:54.666Z,556.00
2023-05-02T12:19:54.724Z,558.00
2023-05-02T12:20:54.744Z,557.00
2023-05-02T12:21:54.800Z,559.00
2023-05-02T12:22:54.831Z,558.00
2023-05-02T12:23:54.868Z,560.00
2023-05-02T12:24:54.917Z,557.00